Time;durP1;ratioP1;P1;durP2;ratioP2;P2;SDS_P1;SDS_P2;PMS_P1;PMS_P2;Temp;Humidity;BMP_temperature;BMP_pressure;BME280_temperature;BME280_humidity;BME280_pressure;Samples;Min_cycle;Max_cycle;Signal;HPM_P1;HPM_P2
2023/08/21 00:01:51;;;;;;;12.63;5.70;;;18.80;99.90;;;;;;5093315;28;20490;-79
2023/08/21 00:04:18;;;;;;;11.80;5.53;;;18.80;99.90;;;;;;5096299;28;20448;-78
2023/08/21 00:06:45;;;;;;;13.73;5.77;;;18.70;99.90;;;;;;5100409;28;20483;-79
2023/08/21 00:09:11;;;;;;;12.43;5.43;;;18.70;99.90;;;;;;5099166;28;20461;-79
2023/08/21 00:11:38;;;;;;;8.80;5.17;;;18.70;99.90;;;;;;5104205;28;20547;-80
2023/08/21 00:14:06;;;;;;;12.10;5.20;;;18.70;99.90;;;;;;5099865;28;20476;-80
2023/08/21 00:16:34;;;;;;;13.13;5.37;;;18.70;99.90;;;;;;5104527;28;20455;-81
2023/08/21 00:19:01;;;;;;;11.00;5.60;;;18.70;99.90;;;;;;5102795;28;20480;-80
2023/08/21 00:21:28;;;;;;;11.70;6.40;;;18.70;99.90;;;;;;5098141;28;20464;-81
2023/08/21 00:23:56;;;;;;;9.93;5.00;;;18.60;99.90;;;;;;5104766;28;20456;-81
2023/08/21 00:26:23;;;;;;;13.93;6.00;;;18.60;99.90;;;;;;5099086;28;20547;-81
2023/08/21 00:28:50;;;;;;;21.53;7.30;;;18.70;99.90;;;;;;5105898;28;20444;-81
2023/08/21 00:31:17;;;;;;;14.57;5.60;;;18.60;99.90;;;;;;5107741;28;20492;-80
2023/08/21 00:33:45;;;;;;;14.67;5.13;;;18.60;99.90;;;;;;5101969;28;20491;-80
2023/08/21 00:36:11;;;;;;;13.70;5.53;;;18.60;99.90;;;;;;5102406;28;20468;-80
2023/08/21 00:38:38;;;;;;;8.33;5.10;;;18.60;99.90;;;;;;5108929;28;20512;-80
2023/08/21 00:41:05;;;;;;;7.80;4.50;;;18.50;99.90;;;;;;5103760;28;20468;-80
2023/08/21 00:43:31;;;;;;;15.03;5.17;;;18.60;99.90;;;;;;5112264;28;20473;-79
2023/08/21 00:45:58;;;;;;;7.17;5.33;;;18.50;99.90;;;;;;5097515;28;20480;-79
2023/08/21 00:48:25;;;;;;;9.37;4.67;;;18.60;99.90;;;;;;5100416;28;20219;-79
2023/08/21 00:50:54;;;;;;;14.77;6.60;;;18.50;99.90;;;;;;5105153;28;21066;-79
2023/08/21 00:53:20;;;;;;;9.97;4.33;;;18.50;99.90;;;;;;5103960;28;20516;-78
2023/08/21 00:55:47;;;;;;;15.80;5.80;;;18.50;99.90;;;;;;5098969;28;20499;-79
2023/08/21 00:58:14;;;;;;;16.10;5.70;;;18.50;99.90;;;;;;5102171;28;20821;-79
2023/08/21 01:00:47;;;;;;;15.80;5.60;;;18.50;99.90;;;;;;5103094;28;20463;-81
2023/08/21 01:03:14;;;;;;;13.53;6.20;;;18.50;99.90;;;;;;5114073;28;20447;-79
2023/08/21 01:05:41;;;;;;;11.00;5.40;;;18.40;99.90;;;;;;5111635;28;20539;-82
2023/08/21 01:08:18;;;;;;;9.80;5.90;;;18.40;99.90;;;;;;5114559;28;20487;-80
2023/08/21 01:10:52;;;;;;;11.00;5.10;;;18.30;99.90;;;;;;5093362;28;20501;-81
2023/08/21 01:13:28;;;;;;;9.60;5.13;;;18.30;99.90;;;;;;5095279;28;20455;-81
2023/08/21 01:15:56;;;;;;;9.60;5.37;;;18.30;99.90;;;;;;5097607;28;20467;-81
2023/08/21 01:18:23;;;;;;;11.03;6.23;;;18.30;99.90;;;;;;5094470;28;20467;-80
2023/08/21 01:20:51;;;;;;;14.30;5.67;;;18.30;99.90;;;;;;5101867;28;20534;-80
2023/08/21 01:23:33;;;;;;;11.03;5.73;;;18.30;99.90;;;;;;5114325;28;20437;-79
2023/08/21 01:26:00;;;;;;;14.40;7.10;;;18.30;99.90;;;;;;5116226;28;20487;-78
2023/08/21 01:28:27;;;;;;;12.10;6.70;;;18.30;99.90;;;;;;5108517;28;20476;-79
2023/08/21 01:31:01;;;;;;;8.17;6.60;;;18.30;99.90;;;;;;5100724;28;20575;-81
2023/08/21 01:33:30;;;;;;;12.17;6.50;;;18.20;99.90;;;;;;5091177;28;20447;-80
2023/08/21 01:35:58;;;;;;;14.70;6.70;;;18.20;99.90;;;;;;5099045;28;20429;-80
2023/08/21 01:38:25;;;;;;;10.33;6.13;;;18.20;99.90;;;;;;5102179;28;20440;-81
2023/08/21 01:40:54;;;;;;;11.50;6.37;;;18.20;99.90;;;;;;5109440;28;21030;-79
2023/08/21 01:43:21;;;;;;;14.63;7.53;;;18.10;99.90;;;;;;5103945;28;20450;-81
2023/08/21 01:45:48;;;;;;;7.60;6.50;;;18.10;99.90;;;;;;5101632;28;20526;-80
2023/08/21 01:48:15;;;;;;;11.80;6.20;;;18.00;99.90;;;;;;5100548;28;20535;-79
2023/08/21 01:50:41;;;;;;;10.93;7.50;;;18.10;99.90;;;;;;5105202;28;20536;-80
2023/08/21 01:53:08;;;;;;;16.70;7.03;;;18.00;99.90;;;;;;5103733;28;20471;-79
2023/08/21 01:55:35;;;;;;;18.23;9.40;;;18.00;99.90;;;;;;5108596;28;20463;-78
2023/08/21 01:58:03;;;;;;;12.00;7.60;;;18.00;99.90;;;;;;5109163;28;20468;-80
2023/08/21 02:00:30;;;;;;;14.23;8.70;;;18.00;99.90;;;;;;5103005;28;20480;-79
2023/08/21 02:02:57;;;;;;;15.37;9.33;;;18.00;99.90;;;;;;5103172;28;20470;-79
2023/08/21 02:05:24;;;;;;;14.13;8.93;;;18.00;99.90;;;;;;5095539;28;20468;-79
2023/08/21 02:07:50;;;;;;;14.37;8.70;;;17.90;99.90;;;;;;5110000;28;20523;-81
2023/08/21 02:10:17;;;;;;;18.50;8.57;;;18.00;99.90;;;;;;5109445;28;20474;-79
2023/08/21 02:12:44;;;;;;;17.03;9.57;;;17.90;99.90;;;;;;5108687;28;20484;-79
2023/08/21 02:15:12;;;;;;;16.03;7.57;;;17.90;99.90;;;;;;5106997;28;20536;-80
2023/08/21 02:17:42;;;;;;;17.27;7.43;;;17.90;99.90;;;;;;5100701;28;20508;-80
2023/08/21 02:20:10;;;;;;;9.90;8.67;;;17.90;99.90;;;;;;5103853;28;20547;-79
2023/08/21 02:22:37;;;;;;;13.10;8.70;;;17.90;99.90;;;;;;5094981;28;20535;-79
2023/08/21 02:25:04;;;;;;;14.13;9.77;;;17.80;99.90;;;;;;5091955;28;20539;-78
2023/08/21 02:27:31;;;;;;;11.73;8.83;;;17.80;99.90;;;;;;5098617;28;20467;-79
2023/08/21 02:29:58;;;;;;;15.37;10.57;;;17.80;99.90;;;;;;5099304;28;20476;-80
2023/08/21 02:32:26;;;;;;;12.90;9.73;;;17.80;99.90;;;;;;5099049;28;20441;-80
2023/08/21 02:34:53;;;;;;;22.43;10.27;;;17.80;99.90;;;;;;5092429;28;20443;-81
2023/08/21 02:37:20;;;;;;;16.80;9.57;;;17.70;99.90;;;;;;5096320;28;20427;-79
2023/08/21 02:39:47;;;;;;;14.73;8.97;;;17.70;99.90;;;;;;5103443;28;20453;-80
2023/08/21 02:42:13;;;;;;;16.53;9.47;;;17.70;99.90;;;;;;5101817;28;20499;-79
2023/08/21 02:44:40;;;;;;;13.77;9.40;;;17.70;99.90;;;;;;5104291;28;20526;-80
2023/08/21 02:47:07;;;;;;;16.20;8.87;;;17.70;99.90;;;;;;5102367;28;20479;-78
2023/08/21 02:49:35;;;;;;;19.83;9.63;;;17.70;99.90;;;;;;5101960;28;20469;-80
2023/08/21 02:52:02;;;;;;;20.50;9.93;;;17.70;99.90;;;;;;5093194;28;20471;-78
2023/08/21 02:54:29;;;;;;;14.10;8.83;;;17.70;99.90;;;;;;5093686;28;20492;-79
2023/08/21 02:56:56;;;;;;;13.30;9.00;;;17.70;99.90;;;;;;5114058;28;20514;-79
2023/08/21 02:59:22;;;;;;;13.13;8.63;;;17.70;99.90;;;;;;5107112;28;20539;-80
2023/08/21 03:01:49;;;;;;;20.90;9.57;;;17.70;99.90;;;;;;5096976;28;20469;-80
2023/08/21 03:04:16;;;;;;;10.97;8.40;;;17.70;99.90;;;;;;5103948;28;20547;-80
2023/08/21 03:06:44;;;;;;;12.00;8.57;;;17.70;99.90;;;;;;5105245;28;21084;-79
2023/08/21 03:09:11;;;;;;;14.90;9.03;;;17.70;99.90;;;;;;5101654;28;20456;-80
2023/08/21 03:11:38;;;;;;;15.27;8.47;;;17.70;99.90;;;;;;5108798;28;20460;-80
2023/08/21 03:14:04;;;;;;;14.50;10.93;;;17.60;99.90;;;;;;5108270;28;20531;-80
2023/08/21 03:16:31;;;;;;;13.87;10.53;;;17.70;99.90;;;;;;5103798;28;20472;-82
2023/08/21 03:18:59;;;;;;;21.10;11.23;;;17.60;99.90;;;;;;5108655;28;20472;-81
2023/08/21 03:21:27;;;;;;;15.80;11.67;;;17.60;99.90;;;;;;5108752;28;20463;-80
2023/08/21 03:23:56;;;;;;;19.10;11.53;;;17.60;99.90;;;;;;5103076;28;20504;-79
2023/08/21 03:26:23;;;;;;;17.07;11.50;;;17.60;99.90;;;;;;5104209;28;20480;-78
2023/08/21 03:28:50;;;;;;;17.00;12.07;;;17.60;99.90;;;;;;5098590;28;20515;-79
2023/08/21 03:31:17;;;;;;;21.20;13.20;;;17.60;99.90;;;;;;5106485;28;20504;-80
2023/08/21 03:33:44;;;;;;;18.00;12.53;;;17.60;99.90;;;;;;5113831;28;20456;-79
2023/08/21 03:36:11;;;;;;;17.90;11.90;;;17.60;99.90;;;;;;5115060;28;20440;-79
2023/08/21 03:38:38;;;;;;;17.10;11.07;;;17.60;99.90;;;;;;5114757;28;20462;-78
2023/08/21 03:41:06;;;;;;;21.03;12.20;;;17.60;99.90;;;;;;5106432;28;20509;-79
2023/08/21 03:43:33;;;;;;;21.10;13.17;;;17.60;99.90;;;;;;5105574;28;20450;-79
2023/08/21 03:46:00;;;;;;;13.30;9.50;;;17.50;99.90;;;;;;5111912;28;20539;-79
2023/08/21 03:48:27;;;;;;;18.90;11.50;;;17.50;99.90;;;;;;5117543;28;20478;-79
2023/08/21 03:50:53;;;;;;;23.30;12.37;;;17.40;99.90;;;;;;5102731;28;20515;-79
2023/08/21 03:53:20;;;;;;;18.53;11.23;;;17.40;99.90;;;;;;5107243;28;20467;-80
2023/08/21 03:55:47;;;;;;;19.03;12.20;;;17.40;99.90;;;;;;5112963;28;20499;-80
2023/08/21 03:58:15;;;;;;;17.57;11.33;;;17.30;99.90;;;;;;5109754;28;20472;-79
2023/08/21 04:00:42;;;;;;;20.73;12.60;;;17.30;99.90;;;;;;5109440;28;20509;-80
2023/08/21 04:03:09;;;;;;;16.67;10.30;;;17.30;99.90;;;;;;5111822;28;20205;-80
2023/08/21 04:05:36;;;;;;;15.50;12.07;;;17.30;99.90;;;;;;5111243;28;20848;-80
2023/08/21 04:08:03;;;;;;;16.73;10.07;;;17.30;99.90;;;;;;5108395;28;20432;-80
2023/08/21 04:10:30;;;;;;;23.40;12.30;;;17.20;99.90;;;;;;5112354;28;20531;-77
2023/08/21 04:12:57;;;;;;;18.30;11.07;;;17.30;99.90;;;;;;5110707;28;20946;-81
2023/08/21 04:15:25;;;;;;;12.30;10.30;;;17.20;99.90;;;;;;5107374;28;20469;-80
2023/08/21 04:17:52;;;;;;;12.70;9.33;;;17.20;99.90;;;;;;5096304;28;20477;-81
2023/08/21 04:20:21;;;;;;;16.63;9.20;;;17.20;99.90;;;;;;5104984;28;20531;-79
2023/08/21 04:22:47;;;;;;;18.70;10.17;;;17.20;99.90;;;;;;5120709;28;20450;-81
2023/08/21 04:25:15;;;;;;;14.90;10.13;;;17.20;99.90;;;;;;5128623;28;20498;-80
2023/08/21 04:27:42;;;;;;;14.70;9.80;;;17.20;99.90;;;;;;5123012;28;20482;-79
2023/08/21 04:30:09;;;;;;;13.20;9.70;;;17.30;99.90;;;;;;5101604;28;20468;-79
2023/08/21 04:32:38;;;;;;;11.67;9.60;;;17.30;99.90;;;;;;5112229;28;20494;-79
2023/08/21 04:35:05;;;;;;;18.03;10.63;;;17.40;99.90;;;;;;5106260;28;20459;-81
2023/08/21 04:37:32;;;;;;;21.80;10.60;;;17.30;99.90;;;;;;5108796;28;20441;-80
2023/08/21 04:39:59;;;;;;;16.70;10.53;;;17.40;99.90;;;;;;5107199;28;20491;-79
2023/08/21 04:42:26;;;;;;;15.00;8.67;;;17.40;99.90;;;;;;5111559;28;20820;-80
2023/08/21 04:44:53;;;;;;;23.90;11.73;;;17.50;99.90;;;;;;5103479;28;20517;-80
2023/08/21 04:47:21;;;;;;;15.37;10.50;;;17.50;99.90;;;;;;5091469;28;20552;-81
2023/08/21 04:49:49;;;;;;;12.47;8.67;;;17.60;99.90;;;;;;5094370;28;21198;-80
2023/08/21 04:52:16;;;;;;;18.40;9.00;;;17.80;99.90;;;;;;5093900;28;20507;-79
2023/08/21 04:54:46;;;;;;;17.83;9.60;;;17.80;99.90;;;;;;5098900;28;20948;-83
2023/08/21 04:57:13;;;;;;;15.23;9.10;;;17.90;99.90;;;;;;5088744;28;20448;-81
2023/08/21 04:59:39;;;;;;;14.53;10.30;;;17.90;99.90;;;;;;5096157;28;20449;-80
2023/08/21 05:02:06;;;;;;;16.93;9.67;;;18.00;99.90;;;;;;5107668;28;20452;-81
2023/08/21 05:04:35;;;;;;;26.03;9.97;;;18.00;99.90;;;;;;5099758;28;20447;-81
2023/08/21 05:07:03;;;;;;;10.60;9.37;;;18.20;99.90;;;;;;5103398;28;20481;-80
2023/08/21 05:09:30;;;;;;;16.13;9.27;;;18.30;99.90;;;;;;5109457;28;20509;-79
2023/08/21 05:11:57;;;;;;;18.83;8.00;;;18.30;99.90;;;;;;5097029;28;20445;-79
2023/08/21 05:14:24;;;;;;;14.03;9.63;;;18.40;99.90;;;;;;5113904;28;20468;-80
2023/08/21 05:16:51;;;;;;;14.37;8.30;;;18.60;99.90;;;;;;5107022;28;20504;-80
2023/08/21 05:19:18;;;;;;;13.13;7.60;;;19.00;99.90;;;;;;5109340;28;20450;-81
2023/08/21 05:21:46;;;;;;;11.03;8.00;;;19.80;99.90;;;;;;5101245;28;20468;-79
2023/08/21 05:24:14;;;;;;;12.17;7.03;;;20.70;99.90;;;;;;5105280;28;20773;-80
2023/08/21 05:26:41;;;;;;;12.00;7.20;;;21.60;99.90;;;;;;5107893;28;20484;-80
2023/08/21 05:29:08;;;;;;;10.90;7.43;;;22.50;99.90;;;;;;5096632;28;20464;-80
2023/08/21 05:31:35;;;;;;;15.00;6.97;;;23.30;99.90;;;;;;5111734;28;20456;-80
2023/08/21 05:34:02;;;;;;;9.77;6.20;;;24.10;99.90;;;;;;5112533;28;20476;-80
2023/08/21 05:36:28;;;;;;;12.70;7.13;;;24.90;99.90;;;;;;5113471;28;20467;-84
2023/08/21 05:38:57;;;;;;;10.33;6.40;;;25.80;99.90;;;;;;5112264;28;20472;-81
2023/08/21 05:41:26;;;;;;;10.07;7.10;;;26.60;99.90;;;;;;5107140;28;20488;-82
2023/08/21 05:43:53;;;;;;;8.50;6.70;;;27.30;99.90;;;;;;5109253;28;20464;-81
2023/08/21 05:46:19;;;;;;;7.90;5.90;;;27.90;99.90;;;;;;5111094;28;20499;-81
2023/08/21 05:48:46;;;;;;;8.33;6.20;;;28.60;99.10;;;;;;5105060;28;20683;-82
2023/08/21 05:51:14;;;;;;;14.17;6.10;;;29.30;96.80;;;;;;5106931;28;20468;-81
2023/08/21 05:53:40;;;;;;;11.33;5.80;;;29.70;95.00;;;;;;5107679;28;20455;-82
2023/08/21 05:56:07;;;;;;;9.60;5.73;;;30.20;93.80;;;;;;5112438;28;20452;-80
2023/08/21 05:58:35;;;;;;;10.40;6.23;;;30.70;92.50;;;;;;5097059;28;20495;-81
2023/08/21 06:01:02;;;;;;;8.57;4.87;;;31.10;91.40;;;;;;5115022;28;20500;-81
2023/08/21 06:03:29;;;;;;;15.70;6.23;;;31.50;90.40;;;;;;5108566;28;20444;-81
2023/08/21 06:05:56;;;;;;;12.60;7.37;;;31.80;89.80;;;;;;5098400;28;20515;-81
2023/08/21 06:08:23;;;;;;;10.43;6.33;;;31.80;89.30;;;;;;5099322;28;20508;-81
2023/08/21 06:10:52;;;;;;;13.20;8.50;;;31.30;89.40;;;;;;5098267;28;20524;-81
2023/08/21 06:13:19;;;;;;;15.77;13.53;;;31.30;89.80;;;;;;5098672;28;20492;-81
2023/08/21 06:15:48;;;;;;;14.00;10.10;;;31.30;90.20;;;;;;5114920;28;20443;-81
2023/08/21 06:18:24;;;;;;;18.70;11.70;;;31.60;90.00;;;;;;5105362;28;20523;-84
2023/08/21 06:20:53;;;;;;;14.87;8.00;;;31.80;88.50;;;;;;5090571;28;20465;-82
2023/08/21 06:23:20;;;;;;;23.87;21.23;;;31.60;88.00;;;;;;5119725;27;20464;-81
2023/08/21 06:25:48;;;;;;;13.73;10.80;;;32.10;88.20;;;;;;5110127;28;20430;-81
2023/08/21 06:28:15;;;;;;;18.07;14.43;;;32.40;86.90;;;;;;5110682;28;20449;-83
2023/08/21 06:30:42;;;;;;;28.93;23.27;;;32.50;86.20;;;;;;5098922;28;20479;-81
2023/08/21 06:33:10;;;;;;;13.50;9.70;;;32.70;85.60;;;;;;5107995;28;20508;-83
2023/08/21 06:35:37;;;;;;;17.60;15.73;;;32.80;84.40;;;;;;5117861;28;20511;-81
2023/08/21 06:38:04;;;;;;;15.40;13.83;;;32.80;83.80;;;;;;5106044;28;20523;-81
2023/08/21 06:40:31;;;;;;;12.37;9.43;;;32.90;83.70;;;;;;5114567;28;20523;-83
2023/08/21 06:42:58;;;;;;;10.47;6.43;;;33.20;83.20;;;;;;5112795;28;20450;-82
2023/08/21 06:45:28;;;;;;;7.27;5.87;;;33.40;82.10;;;;;;5104569;28;21011;-83
2023/08/21 06:47:55;;;;;;;15.00;13.07;;;33.40;81.80;;;;;;5104112;28;20440;-83
2023/08/21 06:50:23;;;;;;;20.23;18.13;;;33.90;81.90;;;;;;5095558;28;20476;-84
2023/08/21 06:52:50;;;;;;;7.37;5.90;;;34.10;81.00;;;;;;5091433;28;20568;-83
2023/08/21 06:55:17;;;;;;;16.20;13.93;;;34.20;79.90;;;;;;5101333;28;20441;-83
2023/08/21 06:57:43;;;;;;;16.10;10.80;;;34.10;79.90;;;;;;5090632;28;20568;-85
2023/08/21 07:00:12;;;;;;;18.03;15.20;;;33.90;79.50;;;;;;5095729;28;20556;-84
2023/08/21 07:02:38;;;;;;;16.17;13.27;;;33.70;80.20;;;;;;5103482;28;20433;-84
2023/08/21 07:05:05;;;;;;;26.30;21.33;;;33.50;81.40;;;;;;5102991;28;20448;-84
2023/08/21 07:07:34;;;;;;;61.23;55.33;;;33.30;81.40;;;;;;5104476;28;20477;-84
2023/08/21 07:10:03;;;;;;;16.10;14.37;;;33.40;82.00;;;;;;5089957;28;20536;-85
2023/08/21 07:12:30;;;;;;;20.20;16.80;;;33.30;81.00;;;;;;5106296;28;20435;-85
2023/08/21 07:14:57;;;;;;;11.27;9.00;;;33.20;82.00;;;;;;5104158;28;20453;-84
2023/08/21 07:17:24;;;;;;;11.73;7.43;;;33.40;81.40;;;;;;5113519;28;20519;-81
2023/08/21 07:19:52;;;;;;;14.17;9.33;;;33.50;81.10;;;;;;5111211;28;20482;-84
2023/08/21 07:22:19;;;;;;;9.93;5.23;;;33.80;80.80;;;;;;5098453;28;20447;-83
2023/08/21 07:24:47;;;;;;;11.27;7.00;;;34.30;78.40;;;;;;5112656;28;20489;-83
2023/08/21 07:27:15;;;;;;;41.40;37.00;;;34.10;77.30;;;;;;5106514;28;20456;-83
2023/08/21 07:29:42;;;;;;;17.67;11.80;;;34.60;76.50;;;;;;5092826;28;20452;-83
2023/08/21 07:32:09;;;;;;;36.17;27.63;;;34.60;75.30;;;;;;5108994;28;20440;-84
2023/08/21 07:34:35;;;;;;;107.47;96.27;;;34.70;74.90;;;;;;5097088;28;20518;-84
2023/08/21 07:37:02;;;;;;;28.70;22.73;;;34.70;76.10;;;;;;5115612;28;20547;-83
2023/08/21 07:39:29;;;;;;;22.73;15.03;;;34.90;74.60;;;;;;5102611;28;20460;-83
2023/08/21 07:41:57;;;;;;;12.50;6.90;;;35.30;73.70;;;;;;5102970;28;20440;-83
2023/08/21 07:44:24;;;;;;;32.17;28.13;;;35.40;73.70;;;;;;5111637;28;20433;-82
2023/08/21 07:46:51;;;;;;;12.00;6.60;;;35.70;73.20;;;;;;5114032;28;20444;-83
2023/08/21 07:49:18;;;;;;;11.03;7.00;;;35.50;73.60;;;;;;5116558;28;20419;-80
2023/08/21 07:51:46;;;;;;;18.70;11.13;;;35.30;73.50;;;;;;5122965;28;20528;-83
2023/08/21 07:54:13;;;;;;;9.87;5.77;;;35.40;74.70;;;;;;5110409;28;20516;-82
2023/08/21 07:56:40;;;;;;;8.67;4.53;;;35.80;72.10;;;;;;5109337;28;20448;-82
2023/08/21 07:59:10;;;;;;;16.37;6.50;;;35.80;70.70;;;;;;5103281;28;20495;-84
2023/08/21 08:01:37;;;;;;;8.87;4.23;;;35.90;70.00;;;;;;5106726;28;20472;-84
2023/08/21 08:04:04;;;;;;;10.37;7.13;;;35.50;68.90;;;;;;5115754;28;20862;-83
2023/08/21 08:06:33;;;;;;;14.00;6.80;;;35.70;70.00;;;;;;5101746;28;20441;-84
2023/08/21 08:09:00;;;;;;;14.40;5.70;;;35.40;67.70;;;;;;5119635;28;20446;-85
2023/08/21 08:11:27;;;;;;;5.70;3.47;;;35.30;70.50;;;;;;5103581;28;20469;-83
2023/08/21 08:13:54;;;;;;;7.40;3.07;;;35.70;67.40;;;;;;5109107;28;20448;-84
2023/08/21 08:16:22;;;;;;;4.33;2.30;;;36.20;66.80;;;;;;5109245;28;20508;-83
2023/08/21 08:18:49;;;;;;;11.47;6.70;;;36.60;61.40;;;;;;5099795;28;20483;-85
2023/08/21 08:21:16;;;;;;;7.30;3.23;;;36.60;61.20;;;;;;5106911;28;20513;-82
2023/08/21 08:23:42;;;;;;;6.13;3.17;;;36.50;61.50;;;;;;5099319;28;20542;-83
2023/08/21 08:26:09;;;;;;;10.53;4.90;;;36.60;62.50;;;;;;5102716;28;20823;-83
2023/08/21 08:28:36;;;;;;;13.40;11.03;;;36.20;63.60;;;;;;5103684;28;20440;-84
2023/08/21 08:31:03;;;;;;;5.37;3.10;;;36.30;61.40;;;;;;5088833;28;20565;-84
2023/08/21 08:33:32;;;;;;;6.57;3.50;;;36.30;60.70;;;;;;5095575;28;20449;-84
2023/08/21 08:35:59;;;;;;;5.97;3.57;;;36.50;61.10;;;;;;5101093;28;20497;-84
2023/08/21 08:38:26;;;;;;;10.67;7.17;;;36.70;60.10;;;;;;5107096;28;21040;-84
2023/08/21 08:40:56;;;;;;;13.53;6.50;;;36.80;60.10;;;;;;5109732;28;20472;-83
2023/08/21 08:43:29;;;;;;;8.70;5.20;;;36.60;60.60;;;;;;5103068;28;20423;-84
2023/08/21 08:45:59;;;;;;;18.33;5.73;;;36.60;60.60;;;;;;5097407;28;20471;-84
2023/08/21 08:48:26;;;;;;;8.90;3.50;;;36.90;61.20;;;;;;5100009;28;20448;-83
2023/08/21 08:50:55;;;;;;;9.37;5.57;;;37.10;59.60;;;;;;5095449;28;20944;-83
2023/08/21 08:53:22;;;;;;;20.00;13.70;;;37.20;59.30;;;;;;5103133;28;20527;-84
2023/08/21 08:55:50;;;;;;;9.53;4.53;;;37.30;61.00;;;;;;5114176;28;20500;-83
2023/08/21 08:58:17;;;;;;;9.10;5.57;;;36.80;60.60;;;;;;5109761;28;20513;-84
2023/08/21 09:00:44;;;;;;;11.70;8.37;;;36.30;60.80;;;;;;5101590;28;20465;-84
2023/08/21 09:03:12;;;;;;;24.80;16.40;;;35.90;61.30;;;;;;5111025;28;20537;-84
2023/08/21 09:05:40;;;;;;;7.47;3.50;;;35.60;63.10;;;;;;5132212;27;20448;-82
2023/08/21 09:08:14;;;;;;;14.23;5.57;;;35.60;62.10;;;;;;5115956;28;20457;-83
2023/08/21 09:10:43;;;;;;;10.50;5.03;;;35.30;62.80;;;;;;5109161;27;20511;-83
2023/08/21 09:13:12;;;;;;;7.50;3.30;;;35.30;62.70;;;;;;5107065;28;20436;-83
2023/08/21 09:15:38;;;;;;;9.20;3.33;;;35.30;59.60;;;;;;5097353;28;20537;-83
2023/08/21 09:18:09;;;;;;;6.20;3.77;;;35.30;61.20;;;;;;5103835;28;20530;-83
2023/08/21 09:20:36;;;;;;;6.60;3.80;;;35.30;61.90;;;;;;5097925;28;20457;-83
2023/08/21 09:23:04;;;;;;;10.33;4.00;;;35.80;62.10;;;;;;5106282;28;20440;-84
2023/08/21 09:25:36;;;;;;;9.40;3.60;;;35.80;62.30;;;;;;5098345;28;20437;-84
2023/08/21 09:28:06;;;;;;;9.63;3.90;;;35.80;60.20;;;;;;5109545;28;20428;-84
2023/08/21 09:30:45;;;;;;;6.50;3.10;;;35.80;62.00;;;;;;5112715;28;20455;-84
2023/08/21 09:33:12;;;;;;;6.07;3.10;;;36.10;62.10;;;;;;5101395;28;20436;-84
2023/08/21 09:35:41;;;;;;;4.50;3.63;;;36.20;62.20;;;;;;5107868;28;20474;-84
2023/08/21 09:38:08;;;;;;;8.40;3.90;;;36.40;62.10;;;;;;5113208;27;20465;-83
2023/08/21 09:40:40;;;;;;;14.30;4.10;;;36.50;61.60;;;;;;5109260;27;20451;-82
2023/08/21 09:43:10;;;;;;;7.57;3.80;;;36.40;61.40;;;;;;5126354;27;20436;-82
2023/08/21 09:45:37;;;;;;;8.53;2.80;;;36.30;60.30;;;;;;5112476;28;20435;-83
2023/08/21 09:48:05;;;;;;;11.13;4.10;;;36.20;62.30;;;;;;5101422;28;20488;-82
2023/08/21 09:50:32;;;;;;;7.37;3.30;;;36.10;62.30;;;;;;5096783;28;20519;-83
2023/08/21 09:52:59;;;;;;;7.80;2.90;;;35.60;62.90;;;;;;5096800;28;20456;-84
2023/08/21 09:55:29;;;;;;;10.67;3.10;;;35.70;63.40;;;;;;5104217;28;20449;-83
2023/08/21 09:57:59;;;;;;;14.53;3.50;;;35.80;63.20;;;;;;5103556;28;20483;-82
2023/08/21 10:00:30;;;;;;;4.70;2.60;;;35.80;62.10;;;;;;5101317;28;20491;-83
2023/08/21 10:03:02;;;;;;;3.87;2.40;;;35.60;63.90;;;;;;5097554;28;20484;-84
2023/08/21 10:05:29;;;;;;;9.43;3.33;;;35.60;63.20;;;;;;5098740;28;20436;-83
2023/08/21 10:07:57;;;;;;;6.57;3.50;;;35.70;62.90;;;;;;5095116;28;20523;-83
2023/08/21 10:10:24;;;;;;;6.13;2.87;;;35.90;62.00;;;;;;5103713;28;20479;-83
2023/08/21 10:12:51;;;;;;;5.23;2.40;;;35.80;61.70;;;;;;5102122;28;20531;-83
2023/08/21 10:15:20;;;;;;;6.63;3.73;;;35.90;61.90;;;;;;5103592;28;20517;-83
2023/08/21 10:17:46;;;;;;;6.50;2.87;;;35.80;62.00;;;;;;5094001;28;20452;-83
2023/08/21 10:20:21;;;;;;;4.40;2.40;;;35.50;61.60;;;;;;5104158;28;20533;-82
2023/08/21 10:22:49;;;;;;;10.47;3.40;;;35.30;62.70;;;;;;5106396;28;20820;-83
2023/08/21 10:25:20;;;;;;;4.90;2.80;;;34.90;63.40;;;;;;5097928;28;20473;-84
2023/08/21 10:27:47;;;;;;;8.70;2.20;;;34.80;64.30;;;;;;5102787;28;20444;-83
2023/08/21 10:30:15;;;;;;;9.23;3.50;;;35.30;63.20;;;;;;5100820;28;20513;-84
2023/08/21 10:32:48;;;;;;;4.37;2.30;;;35.30;62.60;;;;;;5088067;28;20865;-83
2023/08/21 10:35:20;;;;;;;4.87;2.53;;;35.50;63.00;;;;;;5103114;28;20507;-83
2023/08/21 10:38:10;;;;;;;5.40;2.70;;;35.40;60.80;;;;;;5094990;28;20433;-84
2023/08/21 10:40:37;;;;;;;5.13;3.20;;;35.10;61.30;;;;;;5085761;28;20539;-84
2023/08/21 10:43:04;;;;;;;7.03;3.07;;;34.50;60.50;;;;;;5104924;28;20449;-84
2023/08/21 10:45:32;;;;;;;3.73;2.50;;;33.90;63.80;;;;;;5107331;28;20447;-83
2023/08/21 10:48:00;;;;;;;7.70;3.07;;;33.10;65.90;;;;;;5106831;28;20453;-84
2023/08/21 10:50:27;;;;;;;7.50;2.80;;;32.70;67.60;;;;;;5108409;28;20463;-84
2023/08/21 10:52:55;;;;;;;7.63;3.27;;;32.40;66.60;;;;;;5099860;28;20524;-83
2023/08/21 10:55:22;;;;;;;8.00;2.43;;;31.90;68.30;;;;;;5103706;28;20520;-83
2023/08/21 10:57:49;;;;;;;6.77;2.80;;;31.70;68.30;;;;;;5107050;28;20457;-83
2023/08/21 11:00:17;;;;;;;5.03;3.00;;;31.70;67.70;;;;;;5093098;28;20492;-83
2023/08/21 11:02:46;;;;;;;8.27;3.20;;;31.70;66.90;;;;;;5101846;28;20436;-83
2023/08/21 11:05:15;;;;;;;6.33;3.70;;;31.70;66.40;;;;;;5113224;28;20437;-84
2023/08/21 11:07:43;;;;;;;9.97;3.73;;;31.60;67.30;;;;;;5098189;28;20505;-83
2023/08/21 11:10:13;;;;;;;6.37;3.40;;;31.30;67.60;;;;;;5100768;28;20571;-83
2023/08/21 11:12:48;;;;;;;7.07;3.07;;;31.10;67.60;;;;;;5110280;28;20451;-83
2023/08/21 11:15:16;;;;;;;6.57;3.47;;;31.20;67.30;;;;;;5096819;28;20440;-84
2023/08/21 11:17:43;;;;;;;6.20;3.17;;;30.80;67.70;;;;;;5094525;28;20460;-84
2023/08/21 11:20:10;;;;;;;7.67;3.50;;;30.80;68.20;;;;;;5099553;28;20531;-82
2023/08/21 11:22:38;;;;;;;4.87;2.20;;;30.70;69.20;;;;;;5101693;28;20480;-83
2023/08/21 11:25:06;;;;;;;3.80;2.30;;;31.00;70.70;;;;;;5105183;28;20482;-84
2023/08/21 11:27:33;;;;;;;10.30;3.03;;;31.00;69.60;;;;;;5090876;28;20836;-83
2023/08/21 11:30:02;;;;;;;4.83;3.17;;;30.60;69.50;;;;;;5104997;28;20519;-84
2023/08/21 11:32:29;;;;;;;6.50;3.20;;;30.00;70.30;;;;;;5105703;28;20826;-83
2023/08/21 11:34:57;;;;;;;5.50;2.93;;;29.80;68.90;;;;;;5100900;28;20513;-83
2023/08/21 11:37:25;;;;;;;5.80;2.40;;;30.10;71.40;;;;;;5103047;28;20892;-84
2023/08/21 11:39:55;;;;;;;4.03;2.30;;;30.20;72.40;;;;;;5100625;28;20475;-84
2023/08/21 11:42:29;;;;;;;4.53;2.07;;;30.50;71.90;;;;;;5107145;28;20443;-84
2023/08/21 11:44:58;;;;;;;4.97;1.80;;;30.70;71.50;;;;;;5118609;28;20471;-83
2023/08/21 11:47:30;;;;;;;12.20;2.93;;;31.00;68.40;;;;;;5109036;28;20448;-83
2023/08/21 11:49:57;;;;;;;3.50;1.70;;;31.10;68.60;;;;;;5098951;28;20524;-84
2023/08/21 11:52:25;;;;;;;7.83;2.37;;;31.20;69.50;;;;;;5108740;28;20466;-83
2023/08/21 11:54:55;;;;;;;5.03;2.47;;;31.20;68.00;;;;;;5089348;28;20457;-84
2023/08/21 11:57:25;;;;;;;8.80;2.90;;;31.20;68.50;;;;;;5090287;28;20512;-84
2023/08/21 11:59:53;;;;;;;8.53;4.70;;;31.10;68.70;;;;;;5090463;28;20575;-84
2023/08/21 12:02:26;;;;;;;7.00;2.93;;;30.90;67.90;;;;;;5092310;28;20853;-84
2023/08/21 12:04:54;;;;;;;4.97;3.40;;;30.70;65.40;;;;;;5100671;28;20433;-83
2023/08/21 12:07:27;;;;;;;6.30;3.77;;;30.60;66.80;;;;;;5098547;28;20462;-84
2023/08/21 12:09:55;;;;;;;6.17;3.27;;;30.60;67.60;;;;;;5093670;28;20888;-84
2023/08/21 12:12:25;;;;;;;9.00;3.17;;;30.60;67.80;;;;;;5103613;28;20651;-84
2023/08/21 12:14:52;;;;;;;5.40;3.43;;;30.60;67.00;;;;;;5097599;28;20550;-84
2023/08/21 12:17:19;;;;;;;3.77;2.60;;;30.60;65.00;;;;;;5094257;28;20460;-84
2023/08/21 12:19:46;;;;;;;3.83;2.70;;;30.50;62.40;;;;;;5098547;28;20480;-84
2023/08/21 12:22:16;;;;;;;5.23;2.60;;;30.30;64.90;;;;;;5103677;28;20444;-84
2023/08/21 12:24:42;;;;;;;15.73;3.93;;;30.30;67.50;;;;;;5100401;28;20465;-84
2023/08/21 12:27:13;;;;;;;6.70;2.67;;;30.30;67.60;;;;;;5105217;28;20472;-84
2023/08/21 12:29:45;;;;;;;4.00;2.80;;;30.20;67.40;;;;;;5118888;28;20439;-83
2023/08/21 12:32:12;;;;;;;4.00;2.20;;;29.90;65.70;;;;;;5104863;28;20510;-83
2023/08/21 12:34:39;;;;;;;7.00;3.43;;;29.50;65.90;;;;;;5093928;28;20449;-83
2023/08/21 12:37:06;;;;;;;9.13;2.80;;;28.60;67.80;;;;;;5095648;28;20451;-81
2023/08/21 12:39:33;;;;;;;5.47;2.90;;;28.50;70.40;;;;;;5103821;28;20496;-83
2023/08/21 12:42:04;;;;;;;10.13;2.90;;;28.50;70.90;;;;;;5124481;27;20443;-83